Time;durP1;ratioP1;P1;durP2;ratioP2;P2;SDS_P1;SDS_P2;PMS_P1;PMS_P2;Temp;Humidity;BMP_temperature;BMP_pressure;BME280_temperature;BME280_humidity;BME280_pressure;Samples;Min_cycle;Max_cycle;Signal;HPM_P1;HPM_P2
2023/08/17 00:01:47;;;;;;;9.30;3.60;;;16.90;99.90;;;;;;5030436;28;20480;-50
2023/08/17 00:04:13;;;;;;;6.88;3.65;;;16.90;99.90;;;;;;5030581;28;20109;-49
2023/08/17 00:06:39;;;;;;;6.53;3.28;;;16.90;99.90;;;;;;5030541;28;20470;-50
2023/08/17 00:09:04;;;;;;;8.25;3.88;;;16.90;99.90;;;;;;5045147;22;20048;-52
2023/08/17 00:11:30;;;;;;;9.13;3.97;;;16.90;99.90;;;;;;5030671;28;20036;-49
2023/08/17 00:13:56;;;;;;;6.03;3.65;;;16.90;99.90;;;;;;5030601;28;20040;-49
2023/08/17 00:16:23;;;;;;;9.10;4.28;;;16.90;99.90;;;;;;5030474;28;20199;-48
2023/08/17 00:18:49;;;;;;;7.50;4.15;;;16.80;99.90;;;;;;5030677;28;20041;-50
2023/08/17 00:21:14;;;;;;;7.95;4.20;;;16.90;99.90;;;;;;5030566;28;20033;-49
2023/08/17 00:23:40;;;;;;;8.95;4.03;;;16.90;99.90;;;;;;5030323;28;20080;-48
2023/08/17 00:26:06;;;;;;;7.10;4.18;;;16.90;99.90;;;;;;5030560;28;20061;-52
2023/08/17 00:28:32;;;;;;;8.73;4.38;;;16.90;99.90;;;;;;5030463;28;20115;-49
2023/08/17 00:30:59;;;;;;;6.63;3.80;;;16.90;99.90;;;;;;5030782;28;20022;-49
2023/08/17 00:33:25;;;;;;;7.60;4.20;;;16.90;99.90;;;;;;4996480;28;20056;-50
2023/08/17 00:35:50;;;;;;;7.10;3.90;;;16.90;99.90;;;;;;5012823;28;20160;-50
2023/08/17 00:38:17;;;;;;;11.50;3.67;;;16.90;99.90;;;;;;5012691;28;20033;-50
2023/08/17 00:40:43;;;;;;;6.00;3.40;;;16.90;99.90;;;;;;5030446;28;20498;-51
2023/08/17 00:43:09;;;;;;;6.88;3.50;;;16.80;99.90;;;;;;5012427;28;20033;-48
2023/08/17 00:45:35;;;;;;;5.88;3.42;;;16.80;99.90;;;;;;5012725;28;20038;-49
2023/08/17 00:48:01;;;;;;;7.15;3.65;;;16.80;99.90;;;;;;5012648;28;20030;-49
2023/08/17 00:50:28;;;;;;;7.10;3.80;;;16.80;99.90;;;;;;5030428;28;20079;-49
2023/08/17 00:52:55;;;;;;;6.80;3.65;;;16.80;99.90;;;;;;5012552;28;20053;-48
2023/08/17 00:55:21;;;;;;;5.53;3.40;;;16.80;99.90;;;;;;5030374;28;20060;-52
2023/08/17 00:57:47;;;;;;;5.63;3.13;;;16.80;99.90;;;;;;5012496;28;20078;-49
2023/08/17 01:00:14;;;;;;;6.05;3.10;;;16.80;99.90;;;;;;5012700;28;20053;-49
2023/08/17 01:02:41;;;;;;;6.28;3.70;;;16.80;99.90;;;;;;5030128;28;20034;-51
2023/08/17 01:05:08;;;;;;;9.32;3.65;;;16.80;99.90;;;;;;5030356;28;20029;-49
2023/08/17 01:07:33;;;;;;;8.13;3.30;;;16.80;99.90;;;;;;5012430;28;20119;-50
2023/08/17 01:10:01;;;;;;;7.25;3.83;;;16.80;99.90;;;;;;5030278;28;20021;-49
2023/08/17 01:12:31;;;;;;;6.00;3.75;;;16.70;99.90;;;;;;5030896;28;20030;-48
2023/08/17 01:15:14;;;;;;;7.32;4.13;;;16.70;99.90;;;;;;5016319;28;20083;-48
2023/08/17 01:18:01;;;;;;;11.70;4.50;;;16.70;99.90;;;;;;5033909;28;20030;-51
2023/08/17 01:20:28;;;;;;;7.45;3.75;;;16.70;99.90;;;;;;5016811;28;20359;-49
2023/08/17 01:22:59;;;;;;;7.10;3.92;;;16.70;99.90;;;;;;5016089;28;20474;-49
2023/08/17 01:25:24;;;;;;;8.52;4.32;;;16.70;99.90;;;;;;5016414;28;20025;-49
2023/08/17 01:27:50;;;;;;;6.82;3.95;;;16.70;99.90;;;;;;5016044;28;20032;-48
2023/08/17 01:30:17;;;;;;;7.10;3.95;;;16.70;99.90;;;;;;5016170;28;20037;-49
2023/08/17 01:33:00;;;;;;;6.53;3.53;;;16.70;99.90;;;;;;5015659;28;20531;-48
2023/08/17 01:35:37;;;;;;;8.98;4.22;;;16.70;99.90;;;;;;5015957;28;20112;-49
2023/08/17 01:38:07;;;;;;;7.13;4.28;;;16.70;99.90;;;;;;5033468;28;20072;-50
2023/08/17 01:40:33;;;;;;;6.95;3.78;;;16.70;99.90;;;;;;5016397;28;20033;-50
2023/08/17 01:43:01;;;;;;;9.15;4.10;;;16.70;99.90;;;;;;5033141;28;20030;-53
2023/08/17 01:45:27;;;;;;;6.80;3.42;;;16.60;99.90;;;;;;5033859;28;20060;-52
2023/08/17 01:47:52;;;;;;;9.52;4.00;;;16.60;99.90;;;;;;5033183;28;20024;-48
2023/08/17 01:50:18;;;;;;;6.30;3.90;;;16.60;99.90;;;;;;5033489;28;20486;-49
2023/08/17 01:52:44;;;;;;;9.25;3.92;;;16.60;99.90;;;;;;5015349;28;20021;-49
2023/08/17 01:55:09;;;;;;;5.50;3.50;;;16.60;99.90;;;;;;5015551;28;20034;-50
2023/08/17 01:57:36;;;;;;;6.40;3.60;;;16.60;99.90;;;;;;5015333;28;20057;-49
2023/08/17 02:00:04;;;;;;;5.85;3.83;;;16.60;99.90;;;;;;5015211;28;20076;-50
2023/08/17 02:02:40;;;;;;;10.43;4.68;;;16.60;99.90;;;;;;5032972;28;20517;-49
2023/08/17 02:05:06;;;;;;;8.48;4.22;;;16.60;99.90;;;;;;5033332;28;20021;-54
2023/08/17 02:07:31;;;;;;;6.93;3.90;;;16.60;99.90;;;;;;5014913;28;20037;-50
2023/08/17 02:09:57;;;;;;;9.20;4.70;;;16.60;99.90;;;;;;5032968;28;20445;-49
2023/08/17 02:12:22;;;;;;;8.93;4.80;;;16.60;99.90;;;;;;5014804;28;20029;-50
2023/08/17 02:14:48;;;;;;;11.07;4.68;;;16.70;99.90;;;;;;5015010;28;20036;-50
2023/08/17 02:17:16;;;;;;;7.55;3.95;;;16.70;99.90;;;;;;5014750;28;20108;-51
2023/08/17 02:19:43;;;;;;;8.68;4.00;;;16.70;99.90;;;;;;5015083;28;20072;-50
2023/08/17 02:22:10;;;;;;;5.85;3.47;;;16.70;99.90;;;;;;5014909;28;20490;-52
2023/08/17 02:24:37;;;;;;;8.25;3.45;;;16.70;99.90;;;;;;5032492;28;20092;-50
2023/08/17 02:27:02;;;;;;;7.20;3.40;;;16.70;99.90;;;;;;5014508;28;20048;-51
2023/08/17 02:29:28;;;;;;;7.25;3.13;;;16.70;99.90;;;;;;5014756;28;20482;-52
2023/08/17 02:31:54;;;;;;;7.22;3.38;;;16.70;99.90;;;;;;5032323;28;20033;-52
2023/08/17 02:34:19;;;;;;;4.65;3.17;;;16.70;99.90;;;;;;5032341;28;20029;-51
2023/08/17 02:36:45;;;;;;;5.35;3.35;;;16.70;99.90;;;;;;5014631;28;20098;-53
2023/08/17 02:39:11;;;;;;;6.43;3.72;;;16.70;99.90;;;;;;5014599;28;20490;-50
2023/08/17 02:41:36;;;;;;;7.25;4.28;;;16.70;99.90;;;;;;5032165;28;20107;-50
2023/08/17 02:44:02;;;;;;;7.15;3.80;;;16.70;99.90;;;;;;5014310;28;20178;-51
2023/08/17 02:46:28;;;;;;;5.05;3.38;;;16.70;99.90;;;;;;5014267;28;20410;-50
2023/08/17 02:48:53;;;;;;;5.55;3.60;;;16.60;99.90;;;;;;5014287;28;20037;-51
2023/08/17 02:51:19;;;;;;;8.88;3.92;;;16.60;99.90;;;;;;5031919;28;20028;-51
2023/08/17 02:53:45;;;;;;;7.28;3.95;;;16.60;99.90;;;;;;5031934;28;20025;-50
2023/08/17 02:56:12;;;;;;;7.63;3.60;;;16.60;99.90;;;;;;5014215;28;20037;-51
2023/08/17 02:58:41;;;;;;;9.65;4.30;;;16.60;99.90;;;;;;5032220;28;20444;-52
2023/08/17 03:01:09;;;;;;;7.15;4.28;;;16.60;99.90;;;;;;5032198;28;20029;-51
2023/08/17 03:03:35;;;;;;;8.63;3.90;;;16.60;99.90;;;;;;5013856;28;20034;-50
2023/08/17 03:06:02;;;;;;;8.13;3.97;;;16.60;99.90;;;;;;5014098;28;20032;-50
2023/08/17 03:08:27;;;;;;;7.30;4.30;;;16.50;99.90;;;;;;5031479;28;20099;-50
2023/08/17 03:10:53;;;;;;;9.63;4.30;;;16.50;99.90;;;;;;5013790;28;20041;-53
2023/08/17 03:13:19;;;;;;;8.68;4.30;;;16.50;99.90;;;;;;5013705;28;20033;-51
2023/08/17 03:15:45;;;;;;;10.45;5.25;;;16.50;99.90;;;;;;5031578;28;20481;-52
2023/08/17 03:18:11;;;;;;;9.98;4.47;;;16.50;99.90;;;;;;5013839;28;20493;-52
2023/08/17 03:20:37;;;;;;;7.55;4.10;;;16.50;99.90;;;;;;5013845;28;20033;-50
2023/08/17 03:23:06;;;;;;;9.98;4.28;;;16.50;99.90;;;;;;5031263;28;20036;-47
2023/08/17 03:25:33;;;;;;;8.07;4.22;;;16.40;99.90;;;;;;5013657;28;20394;-49
2023/08/17 03:28:00;;;;;;;9.35;4.47;;;16.50;99.90;;;;;;5013609;28;20029;-48
2023/08/17 03:30:26;;;;;;;7.35;3.90;;;16.50;99.90;;;;;;5013643;28;20104;-49
2023/08/17 03:32:51;;;;;;;6.95;3.83;;;16.50;99.90;;;;;;5013605;28;20120;-50
2023/08/17 03:35:17;;;;;;;8.25;3.83;;;16.50;99.90;;;;;;5013704;28;20343;-51
2023/08/17 03:37:43;;;;;;;8.43;3.97;;;16.50;99.90;;;;;;4997446;28;20116;-49
2023/08/17 03:40:10;;;;;;;6.20;3.53;;;16.50;99.90;;;;;;5013909;28;20029;-50
2023/08/17 03:42:35;;;;;;;7.38;3.50;;;16.50;99.90;;;;;;5013735;28;20037;-49
2023/08/17 03:45:02;;;;;;;6.82;3.88;;;16.50;99.90;;;;;;5032515;28;20188;-51
2023/08/17 03:47:28;;;;;;;8.27;3.95;;;16.40;99.90;;;;;;5014689;28;20180;-52
2023/08/17 03:49:54;;;;;;;6.07;4.00;;;16.40;99.90;;;;;;5015551;28;20079;-52
2023/08/17 03:52:19;;;;;;;10.02;4.10;;;16.40;99.90;;;;;;5032220;28;20108;-53
2023/08/17 03:54:47;;;;;;;8.18;3.70;;;16.40;99.90;;;;;;5015417;28;20037;-53
2023/08/17 03:57:12;;;;;;;7.55;3.35;;;16.40;99.90;;;;;;5014110;28;20039;-49
2023/08/17 03:59:38;;;;;;;8.05;3.25;;;16.50;99.90;;;;;;5013236;28;20044;-52
2023/08/17 04:02:04;;;;;;;6.05;3.17;;;16.50;99.90;;;;;;5013150;28;20569;-50
2023/08/17 04:04:30;;;;;;;6.75;3.60;;;16.40;99.90;;;;;;5012892;28;20513;-51
2023/08/17 04:06:56;;;;;;;7.63;3.22;;;16.40;99.90;;;;;;5012938;28;20068;-51
2023/08/17 04:09:22;;;;;;;7.30;3.08;;;16.40;99.90;;;;;;5030631;28;20111;-51
2023/08/17 04:11:48;;;;;;;6.25;3.35;;;16.40;99.90;;;;;;5030692;28;20455;-50
2023/08/17 04:14:14;;;;;;;7.60;3.58;;;16.40;99.90;;;;;;5031132;28;20437;-52
2023/08/17 04:16:39;;;;;;;5.43;3.20;;;16.40;99.90;;;;;;5030847;28;20494;-53
2023/08/17 04:19:05;;;;;;;7.80;3.10;;;16.40;99.90;;;;;;5013138;28;20494;-52
2023/08/17 04:21:31;;;;;;;4.72;2.92;;;16.30;99.90;;;;;;5012898;28;20032;-50
2023/08/17 04:23:57;;;;;;;5.60;2.85;;;16.30;99.90;;;;;;5012862;28;20033;-52
2023/08/17 04:26:23;;;;;;;6.00;3.25;;;16.30;99.90;;;;;;5012629;28;20033;-52
2023/08/17 04:28:49;;;;;;;8.10;3.08;;;16.30;99.90;;;;;;5012989;28;20521;-52
2023/08/17 04:31:17;;;;;;;8.07;3.45;;;16.30;99.90;;;;;;5012924;28;20029;-50
2023/08/17 04:33:44;;;;;;;9.07;3.35;;;16.30;99.90;;;;;;5012908;28;20079;-51
2023/08/17 04:36:10;;;;;;;8.05;3.13;;;16.30;99.90;;;;;;5012871;28;20029;-49
2023/08/17 04:38:36;;;;;;;7.85;3.47;;;16.30;99.90;;;;;;5012734;28;20524;-51
2023/08/17 04:41:02;;;;;;;9.02;3.30;;;16.20;99.90;;;;;;5012859;28;20030;-53
2023/08/17 04:43:29;;;;;;;8.65;3.38;;;16.20;99.90;;;;;;5012660;28;20068;-54
2023/08/17 04:45:55;;;;;;;7.60;3.13;;;16.20;99.90;;;;;;5013138;28;20037;-50
2023/08/17 04:48:21;;;;;;;7.00;3.38;;;16.20;99.90;;;;;;5014877;28;20029;-53
2023/08/17 04:50:48;;;;;;;8.65;3.60;;;16.30;99.90;;;;;;5016746;28;20021;-55
2023/08/17 04:53:14;;;;;;;6.55;3.50;;;16.30;99.90;;;;;;5016552;28;20033;-51
2023/08/17 04:55:39;;;;;;;6.72;3.28;;;16.30;99.90;;;;;;5016774;28;20034;-52
2023/08/17 04:58:05;;;;;;;6.68;3.33;;;16.30;99.90;;;;;;5034222;28;20061;-53
2023/08/17 05:00:31;;;;;;;6.70;3.38;;;16.30;99.90;;;;;;5016869;28;20036;-52
2023/08/17 05:02:57;;;;;;;6.90;3.65;;;16.30;99.90;;;;;;5016489;28;20029;-52
2023/08/17 05:05:26;;;;;;;7.00;3.95;;;16.40;99.90;;;;;;5000810;28;20079;-52
2023/08/17 05:07:53;;;;;;;6.72;4.00;;;16.40;99.90;;;;;;5016544;28;20022;-52
2023/08/17 05:10:18;;;;;;;10.27;3.55;;;16.40;99.90;;;;;;5016842;28;20030;-54
2023/08/17 05:12:44;;;;;;;6.80;3.30;;;16.40;99.90;;;;;;5034817;28;20022;-53
2023/08/17 05:15:10;;;;;;;6.95;3.17;;;16.40;99.90;;;;;;5016481;28;20028;-52
2023/08/17 05:17:36;;;;;;;8.93;4.05;;;16.40;99.90;;;;;;5033949;28;20025;-54
2023/08/17 05:20:04;;;;;;;6.15;3.83;;;16.50;99.90;;;;;;5016232;28;20552;-50
2023/08/17 05:22:30;;;;;;;8.88;3.75;;;16.50;99.90;;;;;;5016046;28;20425;-49
2023/08/17 05:24:55;;;;;;;7.63;3.55;;;16.50;99.90;;;;;;5016110;28;20029;-51
2023/08/17 05:27:21;;;;;;;7.78;3.13;;;16.50;99.90;;;;;;5015996;28;20029;-49
2023/08/17 05:29:48;;;;;;;8.73;3.85;;;16.50;99.90;;;;;;5016089;28;20398;-52
2023/08/17 05:32:13;;;;;;;4.90;2.97;;;16.60;99.90;;;;;;5015873;28;20022;-52
2023/08/17 05:34:41;;;;;;;6.60;2.92;;;16.60;99.90;;;;;;4999599;28;20032;-50
2023/08/17 05:37:06;;;;;;;6.30;3.50;;;16.60;99.90;;;;;;5015672;28;20025;-49
2023/08/17 05:39:32;;;;;;;5.22;3.22;;;16.60;99.90;;;;;;5033739;28;20029;-53
2023/08/17 05:41:58;;;;;;;10.80;3.45;;;16.70;99.90;;;;;;5015710;28;20103;-54
2023/08/17 05:44:23;;;;;;;5.97;3.70;;;16.70;99.90;;;;;;5015608;28;20458;-52
2023/08/17 05:46:49;;;;;;;8.55;3.75;;;16.70;99.90;;;;;;5033337;28;20028;-54
2023/08/17 05:49:15;;;;;;;5.18;3.00;;;16.70;99.90;;;;;;5015608;28;20030;-53
2023/08/17 05:51:40;;;;;;;6.30;3.40;;;16.70;99.90;;;;;;5033244;28;20025;-53
2023/08/17 05:54:07;;;;;;;8.63;3.60;;;16.70;99.90;;;;;;5033756;28;20403;-54
2023/08/17 05:56:32;;;;;;;6.38;3.38;;;16.70;99.90;;;;;;5033052;28;20033;-50
2023/08/17 05:58:58;;;;;;;9.18;3.65;;;16.70;99.90;;;;;;5032906;28;20043;-54
2023/08/17 06:01:24;;;;;;;6.97;3.50;;;16.70;99.90;;;;;;5033028;28;20036;-53
2023/08/17 06:03:49;;;;;;;6.68;3.38;;;16.70;99.90;;;;;;5032902;28;20036;-54
2023/08/17 06:06:15;;;;;;;9.10;3.65;;;16.70;99.90;;;;;;5033081;28;20033;-54
2023/08/17 06:08:41;;;;;;;7.65;3.80;;;16.70;99.90;;;;;;5032793;28;20072;-50
2023/08/17 06:11:06;;;;;;;8.20;4.30;;;16.70;99.90;;;;;;5032923;28;20029;-50
2023/08/17 06:13:32;;;;;;;12.43;4.30;;;16.70;99.90;;;;;;5032570;28;20029;-51
2023/08/17 06:15:57;;;;;;;6.50;4.13;;;16.70;99.90;;;;;;5032893;28;20037;-50
2023/08/17 06:18:23;;;;;;;9.23;3.65;;;16.70;99.90;;;;;;5032637;28;20044;-52
2023/08/17 06:20:51;;;;;;;8.77;4.50;;;16.80;99.90;;;;;;5032891;28;20034;-55
2023/08/17 06:23:17;;;;;;;8.88;4.00;;;16.80;99.90;;;;;;5032386;28;20033;-54
2023/08/17 06:25:43;;;;;;;8.82;3.95;;;16.80;99.90;;;;;;5032737;28;20112;-55
2023/08/17 06:28:08;;;;;;;8.57;4.03;;;16.80;99.90;;;;;;5032611;28;20056;-54
2023/08/17 06:30:34;;;;;;;8.45;4.57;;;16.90;99.90;;;;;;5014950;28;20056;-50
2023/08/17 06:33:00;;;;;;;6.95;4.10;;;16.90;99.90;;;;;;5032435;28;20037;-54
2023/08/17 06:35:25;;;;;;;8.82;4.10;;;16.90;99.90;;;;;;5032630;28;20033;-54
2023/08/17 06:37:53;;;;;;;9.73;4.90;;;17.00;99.90;;;;;;5032355;28;20116;-53
2023/08/17 06:40:19;;;;;;;8.70;4.60;;;17.00;99.90;;;;;;5032489;28;20504;-54
2023/08/17 06:42:45;;;;;;;10.20;5.05;;;17.00;99.90;;;;;;5032119;28;20112;-52
2023/08/17 06:45:10;;;;;;;11.10;5.43;;;17.10;99.90;;;;;;5032493;28;20474;-55
2023/08/17 06:47:36;;;;;;;11.23;6.68;;;17.10;99.90;;;;;;5032144;28;20061;-53
2023/08/17 06:50:02;;;;;;;9.30;5.93;;;17.10;99.90;;;;;;5032618;28;20029;-53
2023/08/17 06:52:27;;;;;;;10.65;6.38;;;17.10;99.90;;;;;;5031844;28;20029;-52
2023/08/17 06:54:53;;;;;;;13.82;7.00;;;17.10;99.90;;;;;;5032109;28;20025;-54
2023/08/17 06:57:18;;;;;;;14.18;6.78;;;17.10;99.90;;;;;;5032005;28;20490;-55
2023/08/17 06:59:45;;;;;;;12.98;7.03;;;17.10;99.90;;;;;;5032605;28;20448;-55
2023/08/17 07:02:11;;;;;;;11.98;6.57;;;17.10;99.90;;;;;;5031857;28;20029;-54
2023/08/17 07:04:37;;;;;;;11.93;6.30;;;17.20;99.90;;;;;;5031873;28;20099;-53
2023/08/17 07:07:03;;;;;;;11.20;7.32;;;17.20;99.90;;;;;;5032001;28;20033;-52
2023/08/17 07:09:29;;;;;;;14.60;7.10;;;17.20;99.90;;;;;;5031816;28;20033;-53
2023/08/17 07:11:54;;;;;;;14.65;8.48;;;17.20;99.90;;;;;;5031093;28;20490;-55
2023/08/17 07:14:20;;;;;;;12.93;7.78;;;17.20;99.90;;;;;;5031746;28;20025;-53
2023/08/17 07:16:45;;;;;;;16.15;8.18;;;17.30;99.90;;;;;;5031429;28;20482;-54
2023/08/17 07:19:13;;;;;;;16.45;8.48;;;17.30;99.90;;;;;;5031898;28;20111;-52
2023/08/17 07:21:39;;;;;;;18.58;8.57;;;17.30;99.90;;;;;;5031549;28;20521;-52
2023/08/17 07:24:14;;;;;;;18.65;9.10;;;17.30;99.90;;;;;;5031624;28;20105;-53
2023/08/17 07:26:40;;;;;;;14.98;8.00;;;17.30;99.90;;;;;;5013667;28;20037;-55
2023/08/17 07:29:06;;;;;;;15.52;7.70;;;17.30;99.90;;;;;;5031519;28;20030;-53
2023/08/17 07:31:33;;;;;;;12.93;7.97;;;17.30;99.90;;;;;;5031391;28;20104;-55
2023/08/17 07:33:59;;;;;;;14.63;8.27;;;17.30;99.90;;;;;;5031360;28;20037;-55
2023/08/17 07:36:25;;;;;;;15.30;7.70;;;17.30;99.90;;;;;;5031281;28;20029;-50
2023/08/17 07:38:50;;;;;;;14.48;7.05;;;17.30;99.90;;;;;;5031699;28;20040;-51
2023/08/17 07:41:16;;;;;;;14.70;7.82;;;17.30;99.90;;;;;;5031367;28;20025;-54
2023/08/17 07:43:42;;;;;;;19.08;8.52;;;17.30;99.90;;;;;;5031004;28;20083;-51
2023/08/17 07:46:07;;;;;;;14.45;7.38;;;17.30;99.90;;;;;;5031303;28;20026;-54
2023/08/17 07:48:33;;;;;;;14.52;7.75;;;17.30;99.90;;;;;;5031079;28;20061;-51
2023/08/17 07:50:59;;;;;;;13.60;7.00;;;17.40;99.90;;;;;;5031186;28;20124;-54
2023/08/17 07:53:25;;;;;;;11.75;6.80;;;17.40;99.90;;;;;;5013139;28;20040;-51
2023/08/17 07:55:51;;;;;;;14.45;7.40;;;17.50;99.90;;;;;;5013517;28;20208;-53
2023/08/17 07:58:16;;;;;;;15.05;7.15;;;17.50;99.90;;;;;;5031049;28;20386;-51
2023/08/17 08:00:42;;;;;;;15.38;7.45;;;17.50;99.90;;;;;;5031240;28;20028;-51
2023/08/17 08:03:08;;;;;;;15.30;6.90;;;17.60;99.90;;;;;;5030979;28;20034;-50
2023/08/17 08:05:33;;;;;;;12.75;6.78;;;17.60;99.90;;;;;;5031116;28;20475;-52
2023/08/17 08:07:59;;;;;;;14.75;7.78;;;17.60;99.90;;;;;;5030715;28;20034;-53
2023/08/17 08:10:25;;;;;;;17.20;8.35;;;17.60;99.90;;;;;;5030859;28;20101;-52
2023/08/17 08:12:50;;;;;;;17.27;8.25;;;17.70;99.90;;;;;;5031029;28;20033;-50
2023/08/17 08:15:16;;;;;;;18.58;9.25;;;17.70;99.90;;;;;;5030929;28;20530;-53
2023/08/17 08:17:42;;;;;;;19.30;10.38;;;17.70;99.90;;;;;;5030878;28;20049;-52
2023/08/17 08:20:08;;;;;;;21.20;10.48;;;17.70;99.90;;;;;;5013190;28;20506;-55
2023/08/17 08:22:34;;;;;;;20.10;10.57;;;17.70;99.90;;;;;;5030696;28;20022;-55
2023/08/17 08:24:59;;;;;;;21.52;10.18;;;17.70;99.90;;;;;;5030722;28;20034;-53
2023/08/17 08:27:25;;;;;;;21.33;9.88;;;17.70;99.90;;;;;;5030597;28;20025;-53
2023/08/17 08:29:51;;;;;;;20.52;10.10;;;17.80;99.90;;;;;;5030765;28;20022;-49
2023/08/17 08:32:16;;;;;;;21.45;11.10;;;17.80;99.90;;;;;;5030918;28;20026;-54
2023/08/17 08:34:42;;;;;;;21.17;10.35;;;17.80;99.90;;;;;;5030779;28;20049;-50
2023/08/17 08:37:07;;;;;;;21.85;11.43;;;17.80;99.90;;;;;;5030817;28;20047;-53
2023/08/17 08:39:52;;;;;;;23.02;11.57;;;17.90;99.90;;;;;;5031011;28;20071;-51
2023/08/17 08:42:18;;;;;;;16.95;10.10;;;18.00;99.90;;;;;;5030757;28;20050;-54
2023/08/17 08:44:45;;;;;;;21.83;10.68;;;18.00;99.90;;;;;;5030761;28;20175;-51
2023/08/17 08:47:11;;;;;;;17.13;9.80;;;18.10;99.90;;;;;;5030772;28;20120;-53
2023/08/17 08:49:44;;;;;;;15.07;8.13;;;18.10;99.90;;;;;;5030709;28;20029;-51
2023/08/17 08:52:17;;;;;;;16.50;8.95;;;18.10;99.90;;;;;;5030595;28;20037;-50
2023/08/17 08:54:44;;;;;;;13.15;7.22;;;18.10;99.90;;;;;;5031003;28;20037;-51
2023/08/17 08:57:14;;;;;;;9.10;5.60;;;18.20;99.90;;;;;;5030469;28;20501;-49
2023/08/17 08:59:44;;;;;;;17.75;8.75;;;18.20;99.90;;;;;;5030611;28;20037;-49
2023/08/17 09:02:15;;;;;;;27.42;13.68;;;18.20;99.90;;;;;;5031020;28;20041;-50
2023/08/17 09:04:45;;;;;;;22.90;13.18;;;18.20;99.90;;;;;;5030442;28;20029;-51
2023/08/17 09:07:13;;;;;;;25.20;12.75;;;18.20;99.90;;;;;;5030417;28;20040;-50
2023/08/17 09:09:38;;;;;;;23.30;13.25;;;18.20;99.90;;;;;;5030702;28;20039;-50
2023/08/17 09:12:08;;;;;;;23.42;12.05;;;18.20;99.90;;;;;;5031594;28;20021;-54
2023/08/17 09:14:33;;;;;;;24.02;13.18;;;18.20;99.90;;;;;;5031489;28;20025;-50
2023/08/17 09:16:59;;;;;;;22.52;12.82;;;18.20;99.90;;;;;;5031707;28;20494;-54
2023/08/17 09:19:25;;;;;;;24.30;12.98;;;18.20;99.90;;;;;;5031742;28;20033;-53
2023/08/17 09:21:51;;;;;;;21.48;12.77;;;18.20;99.90;;;;;;5031445;28;20461;-54
2023/08/17 09:24:16;;;;;;;18.05;10.70;;;18.20;99.90;;;;;;5031525;28;20036;-50
2023/08/17 09:26:42;;;;;;;19.90;12.50;;;18.20;99.90;;;;;;5030742;28;20053;-54
2023/08/17 09:29:20;;;;;;;21.98;12.23;;;18.30;99.90;;;;;;5030627;28;20034;-53
2023/08/17 09:31:47;;;;;;;27.00;13.65;;;18.30;99.90;;;;;;5029859;28;20021;-51
2023/08/17 09:34:15;;;;;;;24.40;13.55;;;18.30;99.90;;;;;;5031527;28;20052;-54
2023/08/17 09:36:41;;;;;;;30.98;14.73;;;18.30;99.90;;;;;;5033332;28;20505;-49
2023/08/17 09:39:07;;;;;;;22.58;13.63;;;18.30;99.90;;;;;;5033874;28;20037;-50
2023/08/17 09:41:41;;;;;;;20.55;12.80;;;18.30;99.90;;;;;;5033324;28;20029;-51
2023/08/17 09:44:07;;;;;;;22.55;12.57;;;18.40;99.90;;;;;;5015707;28;20040;-54
2023/08/17 09:46:33;;;;;;;21.27;13.77;;;18.40;99.90;;;;;;5033292;28;20474;-50
2023/08/17 09:49:04;;;;;;;23.45;12.93;;;18.40;99.90;;;;;;5033823;28;20040;-52
2023/08/17 09:51:30;;;;;;;22.02;12.75;;;18.40;99.90;;;;;;5033272;28;20033;-54
2023/08/17 09:53:57;;;;;;;22.27;12.15;;;18.40;99.90;;;;;;5033256;28;20052;-53
2023/08/17 09:56:23;;;;;;;18.23;12.23;;;18.40;99.90;;;;;;5033186;28;20041;-54
2023/08/17 09:58:50;;;;;;;22.58;13.77;;;18.40;99.90;;;;;;5033677;28;20044;-54
2023/08/17 10:01:17;;;;;;;24.77;13.40;;;18.40;99.90;;;;;;5033127;28;20029;-51
2023/08/17 10:03:45;;;;;;;20.60;12.63;;;18.40;99.90;;;;;;5032725;28;20034;-54
2023/08/17 10:06:14;;;;;;;21.17;12.88;;;18.50;99.90;;;;;;5033070;28;20037;-54
2023/08/17 10:08:45;;;;;;;23.08;11.98;;;18.50;99.90;;;;;;5032794;28;20550;-52
2023/08/17 10:11:14;;;;;;;23.60;11.98;;;18.60;99.90;;;;;;5033077;28;20524;-51
2023/08/17 10:13:45;;;;;;;21.35;12.40;;;18.60;99.90;;;;;;5032794;28;20132;-53
2023/08/17 10:16:28;;;;;;;30.85;15.00;;;18.60;99.90;;;;;;5015080;28;20038;-53
2023/08/17 10:18:58;;;;;;;25.30;15.05;;;18.70;99.90;;;;;;5033246;28;20611;-50
2023/08/17 10:21:35;;;;;;;26.75;15.75;;;18.70;99.90;;;;;;5033088;28;20040;-52
2023/08/17 10:24:03;;;;;;;28.65;14.88;;;18.70;99.90;;;;;;5032539;28;20520;-53
2023/08/17 10:26:29;;;;;;;23.67;14.48;;;18.70;99.90;;;;;;5032564;28;20056;-51
2023/08/17 10:28:58;;;;;;;25.52;15.05;;;18.70;99.90;;;;;;5032687;28;20029;-51
2023/08/17 10:31:25;;;;;;;26.00;15.10;;;18.80;99.90;;;;;;5032455;28;20040;-51
2023/08/17 10:33:51;;;;;;;23.17;14.63;;;18.80;99.90;;;;;;5032742;28;20121;-54
2023/08/17 10:36:17;;;;;;;24.13;14.13;;;18.70;99.90;;;;;;5032654;28;20069;-54
2023/08/17 10:38:43;;;;;;;20.88;13.85;;;18.80;99.90;;;;;;5032255;28;20025;-53
2023/08/17 10:41:10;;;;;;;22.92;14.75;;;18.80;99.90;;;;;;5032609;28;20560;-54
2023/08/17 10:43:59;;;;;;;23.90;15.27;;;18.80;99.90;;;;;;5032134;28;20026;-52
2023/08/17 10:46:34;;;;;;;;;;;18.80;99.90;;;;;;5031694;28;20029;-54
2023/08/17 10:49:05;;;;;;;25.13;14.55;;;18.80;99.90;;;;;;5032451;28;19945;-53
2023/08/17 10:51:31;;;;;;;26.15;14.25;;;18.90;99.90;;;;;;5032077;28;20034;-52
2023/08/17 10:54:01;;;;;;;19.55;13.23;;;18.90;99.90;;;;;;5032155;28;20128;-54
2023/08/17 10:56:27;;;;;;;21.20;12.60;;;19.00;99.90;;;;;;5032063;28;20513;-54
2023/08/17 10:58:53;;;;;;;20.90;13.18;;;19.20;99.90;;;;;;5032048;28;20021;-49
2023/08/17 11:01:32;;;;;;;19.30;13.50;;;19.30;99.90;;;;;;5031917;28;20052;-52
2023/08/17 11:04:17;;;;;;;18.88;12.38;;;19.50;99.90;;;;;;5031884;28;20036;-50
2023/08/17 11:06:44;;;;;;;17.00;11.32;;;19.70;99.90;;;;;;5031950;28;20421;-54
2023/08/17 11:09:10;;;;;;;19.20;11.35;;;19.80;99.90;;;;;;5031850;28;20037;-53
2023/08/17 11:11:35;;;;;;;16.48;10.13;;;19.90;99.90;;;;;;5014134;28;20087;-54
2023/08/17 11:14:02;;;;;;;18.83;10.20;;;19.90;99.90;;;;;;5031682;28;20035;-54
2023/08/17 11:16:27;;;;;;;19.92;12.23;;;19.90;99.90;;;;;;5031612;28;20074;-54
2023/08/17 11:18:55;;;;;;;19.02;12.02;;;19.90;99.90;;;;;;5031957;28;20069;-53
2023/08/17 11:21:21;;;;;;;18.40;11.75;;;19.80;99.90;;;;;;5031560;28;20025;-51
2023/08/17 11:23:47;;;;;;;20.65;11.73;;;19.80;99.90;;;;;;5031362;28;20513;-51
2023/08/17 11:26:16;;;;;;;23.00;12.75;;;19.80;99.90;;;;;;5031676;28;20037;-50
2023/08/17 11:28:41;;;;;;;23.05;13.20;;;19.80;99.90;;;;;;5031318;28;20098;-52
2023/08/17 11:31:10;;;;;;;22.02;13.52;;;19.80;99.90;;;;;;5031401;28;20494;-52
2023/08/17 11:33:37;;;;;;;20.98;12.38;;;19.80;99.90;;;;;;5031286;28;20446;-53
2023/08/17 11:36:06;;;;;;;20.35;12.50;;;19.80;99.90;;;;;;5031553;28;20029;-54
2023/08/17 11:38:39;;;;;;;26.15;13.73;;;19.80;99.90;;;;;;5031390;28;20053;-54
2023/08/17 11:41:08;;;;;;;24.98;13.25;;;19.80;99.90;;;;;;5013724;28;20033;-53
2023/08/17 11:43:34;;;;;;;21.08;13.00;;;19.80;99.90;;;;;;5031224;28;20033;-54
2023/08/17 11:46:01;;;;;;;23.23;12.93;;;19.80;99.90;;;;;;5031395;28;20413;-54
2023/08/17 11:48:27;;;;;;;18.17;11.98;;;19.90;99.90;;;;;;5031098;28;20029;-53
2023/08/17 11:50:54;;;;;;;21.20;12.10;;;19.90;99.90;;;;;;5031150;28;20036;-50
2023/08/17 11:53:20;;;;;;;20.70;11.77;;;20.00;99.90;;;;;;5030981;28;20339;-53
2023/08/17 11:55:46;;;;;;;21.27;11.85;;;20.00;99.90;;;;;;5013399;28;20124;-54
2023/08/17 11:58:12;;;;;;;21.13;12.23;;;20.00;99.90;;;;;;5030837;28;20116;-54
2023/08/17 12:00:44;;;;;;;17.10;11.45;;;20.00;99.90;;;;;;5031304;28;20433;-53
2023/08/17 12:03:16;;;;;;;20.23;11.40;;;20.10;99.90;;;;;;5030881;28;20034;-54
2023/08/17 12:05:43;;;;;;;16.38;10.88;;;20.10;99.90;;;;;;5013369;28;20033;-52
2023/08/17 12:08:09;;;;;;;21.80;12.07;;;20.10;99.90;;;;;;5013136;28;20068;-50
2023/08/17 12:10:37;;;;;;;24.13;12.90;;;20.20;99.90;;;;;;5013451;28;20061;-50
2023/08/17 12:13:03;;;;;;;22.83;12.90;;;20.20;99.90;;;;;;5013241;28;20032;-53
2023/08/17 12:15:35;;;;;;;19.98;12.40;;;20.20;99.90;;;;;;5030893;28;20389;-54
2023/08/17 12:18:03;;;;;;;22.05;12.70;;;20.20;99.90;;;;;;5030836;28;20120;-54
2023/08/17 12:20:32;;;;;;;22.40;12.60;;;20.30;99.90;;;;;;5031084;28;20036;-54
2023/08/17 12:23:01;;;;;;;21.98;12.95;;;20.30;99.90;;;;;;5030597;28;20025;-52
2023/08/17 12:25:27;;;;;;;20.13;12.85;;;20.30;99.90;;;;;;5031387;28;20091;-52
2023/08/17 12:27:53;;;;;;;21.00;12.85;;;20.30;99.90;;;;;;5030792;28;20029;-54
2023/08/17 12:30:36;;;;;;;21.55;12.25;;;20.30;99.90;;;;;;5031133;28;20040;-51
2023/08/17 12:33:02;;;;;;;19.08;12.18;;;20.30;99.90;;;;;;5030682;28;20037;-54
2023/08/17 12:35:28;;;;;;;22.95;11.95;;;20.20;99.90;;;;;;5031429;28;20071;-54
2023/08/17 12:37:54;;;;;;;21.17;11.73;;;20.20;99.90;;;;;;5030650;28;20029;-53